Bagdad, Florida
Current Conditions -  °F | °C
As of 12:56 AM on Thursday 23 Oct 2014 (Local Time) from KNDZ Reporting Station
Clear Clear  
Wind Chill: 11°   Ceiling: Unl
Heat Index: 11°   Visibility: 10mi
Dew Point:   Wind: 5mph
Humidity: 80%   Direction: 40°NE
Pressure: 30.06"   Gusts: NA
Location:  30.6°N, 87.04°W
Report Text: KNDZ 230556Z 04004KT 10SM CLR 11/07 A3006 RMK AO2 SLP164 T01060072 10189 20089 402610089 58012 $
Loading
Personal Weather Stations






























Interactive Weather Map
Tropical Storm Tracking
New forecast layout! Learn more

10-Day Weather Forecast

Advertisements
Track Severe Weather on mobile